createdAt,value
2023-04-16T00:00:56.738Z,100120.25
2023-04-16T00:03:59.091Z,100127.19
2023-04-16T00:07:01.269Z,100127.50
2023-04-16T00:10:03.256Z,100121.53
2023-04-16T00:13:05.196Z,100126.03
2023-04-16T00:16:07.367Z,100123.41
2023-04-16T00:19:09.730Z,100131.84
2023-04-16T00:22:11.775Z,100119.25
2023-04-16T00:25:13.867Z,100130.50
2023-04-16T00:28:15.692Z,100127.53
2023-04-16T00:31:17.658Z,100127.94
2023-04-16T00:34:19.544Z,100127.22
2023-04-16T00:37:21.537Z,100133.72
2023-04-16T00:40:23.461Z,100122.94
2023-04-16T00:43:25.921Z,100120.31
2023-04-16T00:46:27.864Z,100132.63
2023-04-16T00:49:29.933Z,100129.84
2023-04-16T00:52:32.005Z,100131.34
2023-04-16T00:55:33.934Z,100112.66
2023-04-16T00:58:35.853Z,100124.56
2023-04-16T01:01:37.744Z,100122.37
2023-04-16T01:04:39.726Z,100120.84
2023-04-16T01:07:41.592Z,100122.50
2023-04-16T01:10:43.441Z,100123.97
2023-04-16T01:13:45.401Z,100134.75
2023-04-16T01:16:47.347Z,100145.34
2023-04-16T01:19:49.203Z,100143.84
2023-04-16T01:22:51.045Z,100144.97
2023-04-16T01:25:52.910Z,100142.78
2023-04-16T01:28:54.822Z,100140.75
2023-04-16T01:31:56.696Z,100147.16
2023-04-16T01:34:58.498Z,100134.88
2023-04-16T01:38:00.363Z,100134.41
2023-04-16T01:41:02.207Z,100137.78
2023-04-16T01:44:04.133Z,100139.84
2023-04-16T01:47:05.911Z,100131.94
2023-04-16T01:50:07.909Z,100151.59
2023-04-16T01:53:09.747Z,100142.53
2023-04-16T01:56:11.670Z,100145.31
2023-04-16T01:59:13.543Z,100146.22
2023-04-16T02:02:16.250Z,100144.47
2023-04-16T02:05:18.267Z,100142.13
2023-04-16T02:08:20.160Z,100132.47
2023-04-16T02:11:22.043Z,100143.53
2023-04-16T02:14:25.618Z,100153.25
2023-04-16T02:17:27.583Z,100165.63
2023-04-16T02:20:29.539Z,100151.88
2023-04-16T02:23:31.388Z,100162.91
2023-04-16T02:26:33.332Z,100166.63
2023-04-16T02:29:35.344Z,100163.50
2023-04-16T02:32:37.248Z,100148.59
2023-04-16T02:35:43.588Z,100157.59
2023-04-16T02:38:45.370Z,100163.44
2023-04-16T02:41:47.240Z,100156.19
2023-04-16T02:44:49.058Z,100165.03
2023-04-16T02:47:51.086Z,100164.81
2023-04-16T02:50:52.973Z,100151.81
2023-04-16T02:53:54.848Z,100160.66
2023-04-16T02:56:56.931Z,100149.03
2023-04-16T02:59:58.790Z,100155.78
2023-04-16T03:03:00.789Z,100161.44
2023-04-16T03:06:02.665Z,100161.72
2023-04-16T03:09:04.655Z,100160.44
2023-04-16T03:12:06.549Z,100155.75
2023-04-16T03:15:08.665Z,100162.72
2023-04-16T03:18:10.692Z,100172.59
2023-04-16T03:21:12.602Z,100168.53
2023-04-16T03:24:14.502Z,100177.03
2023-04-16T03:27:16.384Z,100172.13
2023-04-16T03:30:18.243Z,100174.66
2023-04-16T03:33:20.690Z,100185.84
2023-04-16T03:36:23.346Z,100195.81
2023-04-16T03:39:25.347Z,100205.97
2023-04-16T03:42:27.248Z,100204.94
2023-04-16T03:45:29.046Z,100217.56
2023-04-16T03:48:30.926Z,100226.19
2023-04-16T03:51:32.909Z,100224.38
2023-04-16T03:54:34.776Z,100231.75
2023-04-16T03:57:36.580Z,100230.69
2023-04-16T04:00:41.155Z,100239.47
2023-04-16T04:03:43.294Z,100240.81
2023-04-16T04:06:45.657Z,100236.06
2023-04-16T04:09:47.479Z,100242.66
2023-04-16T04:12:49.386Z,100235.72
2023-04-16T04:15:51.560Z,100233.59
2023-04-16T04:18:53.403Z,100232.88
2023-04-16T04:21:55.444Z,100237.16
2023-04-16T04:24:57.244Z,100226.84
2023-04-16T04:27:59.117Z,100239.53
2023-04-16T04:31:01.380Z,100246.47
2023-04-16T04:34:03.311Z,100237.81
2023-04-16T04:37:05.209Z,100246.31
2023-04-16T04:40:07.510Z,100261.84
2023-04-16T04:43:09.402Z,100261.78
2023-04-16T04:46:11.446Z,100250.66
2023-04-16T04:49:13.339Z,100244.91
2023-04-16T04:52:15.357Z,100260.13
2023-04-16T04:55:17.260Z,100257.72
2023-04-16T04:58:19.147Z,100238.19
2023-04-16T05:01:21.120Z,100253.13
2023-04-16T05:04:23.023Z,100257.63
2023-04-16T05:07:24.981Z,100269.44
2023-04-16T05:10:27.093Z,100275.72
2023-04-16T05:13:28.974Z,100267.91
2023-04-16T05:16:30.913Z,100276.28
2023-04-16T05:19:32.920Z,100255.28
2023-04-16T05:22:34.765Z,100266.09
2023-04-16T05:25:36.917Z,100262.72
2023-04-16T05:28:38.776Z,100271.00
2023-04-16T05:31:41.051Z,100269.22
2023-04-16T05:34:42.917Z,100267.09
2023-04-16T05:37:44.783Z,100292.41
2023-04-16T05:40:46.594Z,100286.31
2023-04-16T05:43:48.489Z,100286.09
2023-04-16T05:46:50.344Z,100291.69
2023-04-16T05:49:52.189Z,100287.91
2023-04-16T05:52:54.135Z,100288.28
2023-04-16T05:55:56.032Z,100293.25
2023-04-16T05:58:58.132Z,100307.22
2023-04-16T06:02:00.388Z,100306.75
2023-04-16T06:05:02.575Z,100311.87
2023-04-16T06:08:04.421Z,100317.00
2023-04-16T06:11:06.609Z,100315.63
2023-04-16T06:14:08.457Z,100305.06
2023-04-16T06:17:10.492Z,100301.28
2023-04-16T06:20:12.642Z,100315.72
2023-04-16T06:23:14.783Z,100315.81
2023-04-16T06:26:16.875Z,100290.41
2023-04-16T06:29:18.719Z,100303.84
2023-04-16T06:32:20.681Z,100300.44
2023-04-16T06:35:22.672Z,100300.12
2023-04-16T06:38:24.577Z,100300.88
2023-04-16T06:41:27.227Z,100298.56
2023-04-16T06:44:29.113Z,100296.88
2023-04-16T06:47:31.014Z,100297.13
2023-04-16T06:50:33.134Z,100305.00
2023-04-16T06:53:37.464Z,100302.00
2023-04-16T06:56:39.371Z,100291.34
2023-04-16T06:59:41.317Z,100287.75
2023-04-16T07:02:43.284Z,100283.78
2023-04-16T07:05:45.399Z,100304.38
2023-04-16T07:08:47.290Z,100300.78
2023-04-16T07:11:49.135Z,100304.41
2023-04-16T07:14:51.011Z,100303.34
2023-04-16T07:17:52.966Z,100306.38
2023-04-16T07:20:54.805Z,100298.84
2023-04-16T07:23:56.755Z,100294.47
2023-04-16T07:26:58.825Z,100284.87
2023-04-16T07:30:01.054Z,100297.28
2023-04-16T07:33:03.457Z,100293.28
2023-04-16T07:36:05.479Z,100291.72
2023-04-16T07:39:07.356Z,100303.88
2023-04-16T07:42:09.275Z,100303.75
2023-04-16T07:45:11.434Z,100308.63
2023-04-16T07:48:13.583Z,100290.38
2023-04-16T07:51:15.680Z,100292.28
2023-04-16T07:54:17.573Z,100293.94
2023-04-16T07:57:19.411Z,100305.78
2023-04-16T08:00:21.419Z,100297.34
2023-04-16T08:03:23.633Z,100302.50
2023-04-16T08:06:26.775Z,100302.34
2023-04-16T08:09:29.027Z,100303.19
2023-04-16T08:12:31.041Z,100293.47
2023-04-16T08:15:32.929Z,100292.91
2023-04-16T08:18:34.824Z,100289.09
2023-04-16T08:21:36.711Z,100286.94
2023-04-16T08:24:38.586Z,100296.00
2023-04-16T08:27:40.638Z,100281.63
2023-04-16T08:30:42.503Z,100296.16
2023-04-16T08:33:44.493Z,100302.34
2023-04-16T08:36:46.425Z,100312.13
2023-04-16T08:39:48.300Z,100298.63
2023-04-16T08:42:53.402Z,100296.16
2023-04-16T08:45:56.558Z,100310.22
2023-04-16T08:48:58.378Z,100311.97
2023-04-16T08:52:00.438Z,100288.25
2023-04-16T08:55:02.538Z,100304.81
2023-04-16T08:58:07.837Z,100308.31
2023-04-16T09:01:09.766Z,100322.84
2023-04-16T09:04:11.857Z,100320.22
2023-04-16T09:07:13.849Z,100304.84
2023-04-16T09:10:16.406Z,100311.72
2023-04-16T09:13:20.514Z,100313.59
2023-04-16T09:16:22.506Z,100327.03
2023-04-16T09:19:24.552Z,100315.28
2023-04-16T09:22:26.415Z,100333.19
2023-04-16T09:25:28.298Z,100329.69
2023-04-16T09:28:40.902Z,100341.00
2023-04-16T09:31:42.944Z,100338.94
2023-04-16T09:34:53.918Z,100337.62
2023-04-16T09:37:56.959Z,100316.34
2023-04-16T09:41:08.327Z,100326.03
2023-04-16T09:44:10.194Z,100336.53
2023-04-16T09:47:12.773Z,100336.56
2023-04-16T09:50:18.901Z,100339.44
2023-04-16T09:53:27.977Z,100338.84
2023-04-16T09:56:30.544Z,100347.97
2023-04-16T09:59:34.202Z,100345.06
2023-04-16T10:02:39.236Z,100337.31
2023-04-16T10:05:41.456Z,100332.69
2023-04-16T10:08:44.137Z,100329.91
2023-04-16T10:11:46.028Z,100324.19
2023-04-16T10:14:50.008Z,100318.59
2023-04-16T10:17:52.307Z,100326.16
2023-04-16T10:20:54.210Z,100321.16
2023-04-16T10:23:55.998Z,100301.37
2023-04-16T10:26:58.216Z,100306.56
2023-04-16T10:30:00.477Z,100297.47
2023-04-16T10:33:03.108Z,100295.13
2023-04-16T10:36:09.603Z,100283.59
2023-04-16T10:39:14.709Z,100300.47
2023-04-16T10:42:18.741Z,100293.47
2023-04-16T10:45:21.545Z,100275.16
2023-04-16T10:48:30.812Z,100272.81
2023-04-16T10:51:37.664Z,100284.28
2023-04-16T10:54:39.820Z,100287.91
2023-04-16T10:57:41.716Z,100271.16
2023-04-16T11:00:51.102Z,100263.63
2023-04-16T11:03:53.140Z,100270.09
2023-04-16T11:07:04.532Z,100268.31
2023-04-16T11:10:06.855Z,100268.38
2023-04-16T11:13:09.666Z,100252.16
2023-04-16T11:16:12.150Z,100258.06
2023-04-16T11:19:17.762Z,100265.25
2023-04-16T11:22:19.628Z,100258.38
2023-04-16T11:25:22.453Z,100243.75
2023-04-16T11:28:34.350Z,100271.94
2023-04-16T11:31:36.330Z,100256.03
2023-04-16T11:34:45.402Z,100261.25
2023-04-16T11:37:48.433Z,100262.25
2023-04-16T11:40:51.664Z,100260.94
2023-04-16T11:43:53.595Z,100262.34
2023-04-16T11:46:55.711Z,100260.56
2023-04-16T11:49:58.292Z,100243.09
2023-04-16T11:53:03.824Z,100255.88
2023-04-16T11:56:05.755Z,100268.78
2023-04-16T11:59:11.380Z,100256.50
2023-04-16T12:02:13.616Z,100248.62
2023-04-16T12:05:31.962Z,100247.44
2023-04-16T12:08:33.876Z,100258.09
2023-04-16T12:11:39.605Z,100236.50
2023-04-16T12:14:49.467Z,100254.25
2023-04-16T12:17:54.503Z,100241.91
2023-04-16T12:20:56.394Z,100224.97
2023-04-16T12:23:58.238Z,100217.81
2023-04-16T12:27:03.085Z,100240.00
2023-04-16T12:30:07.333Z,100234.09
2023-04-16T12:33:16.685Z,100231.94
2023-04-16T12:36:18.937Z,100228.84
2023-04-16T12:39:20.798Z,100228.62
2023-04-16T12:42:22.715Z,100223.94
2023-04-16T12:45:24.773Z,100202.22
2023-04-16T12:48:26.650Z,100224.97
2023-04-16T12:51:28.548Z,100211.88
2023-04-16T12:54:31.347Z,100214.97
2023-04-16T12:57:33.199Z,100196.37
2023-04-16T13:00:35.088Z,100209.34
2023-04-16T13:03:37.287Z,100206.81
2023-04-16T13:06:40.193Z,100209.53
2023-04-16T13:09:42.404Z,100214.22
2023-04-16T13:12:44.250Z,100204.66
2023-04-16T13:15:46.244Z,100205.66
2023-04-16T13:18:48.238Z,100198.44
2023-04-16T13:21:50.064Z,100202.69
2023-04-16T13:24:51.928Z,100192.19
2023-04-16T13:27:56.377Z,100197.41
2023-04-16T13:30:58.300Z,100184.25
2023-04-16T13:34:00.245Z,100188.81
2023-04-16T13:37:02.250Z,100187.44
2023-04-16T13:40:04.397Z,100186.09
2023-04-16T13:43:07.805Z,100191.75
2023-04-16T13:46:09.813Z,100176.50
2023-04-16T13:49:11.827Z,100189.37
2023-04-16T13:52:13.788Z,100178.66
2023-04-16T13:55:19.215Z,100170.81
2023-04-16T13:58:21.317Z,100170.34
2023-04-16T14:01:23.468Z,100175.47
2023-04-16T14:04:25.840Z,100171.31
2023-04-16T14:07:27.806Z,100170.75
2023-04-16T14:10:29.713Z,100166.84
2023-04-16T14:13:31.747Z,100175.59
2023-04-16T14:16:33.957Z,100171.81
2023-04-16T14:19:35.879Z,100175.13
2023-04-16T14:22:37.789Z,100176.59
2023-04-16T14:25:39.724Z,100172.56
2023-04-16T14:28:41.698Z,100173.28
2023-04-16T14:31:43.639Z,100175.22
2023-04-16T14:34:45.637Z,100159.22
2023-04-16T14:37:47.475Z,100156.28
2023-04-16T14:40:49.476Z,100167.75
2023-04-16T14:43:51.475Z,100162.37
2023-04-16T14:46:53.837Z,100161.66
2023-04-16T14:49:55.723Z,100152.16
2023-04-16T14:52:57.826Z,100149.25
2023-04-16T14:55:59.812Z,100155.94
2023-04-16T14:59:01.666Z,100152.78
2023-04-16T15:02:03.756Z,100151.66
2023-04-16T15:05:07.815Z,100161.44
2023-04-16T15:08:09.791Z,100153.41
2023-04-16T15:11:11.666Z,100151.19
2023-04-16T15:14:13.573Z,100144.66
2023-04-16T15:17:15.457Z,100147.44
2023-04-16T15:20:17.476Z,100149.47
2023-04-16T15:23:19.350Z,100138.87
2023-04-16T15:26:21.571Z,100144.41
2023-04-16T15:29:23.455Z,100144.41
2023-04-16T15:32:25.506Z,100148.84
2023-04-16T15:35:27.454Z,100146.59
2023-04-16T15:38:30.731Z,100150.84
2023-04-16T15:41:34.828Z,100140.16
2023-04-16T15:44:36.922Z,100152.44
2023-04-16T15:47:41.508Z,100156.38
2023-04-16T15:50:43.884Z,100150.69
2023-04-16T15:53:45.981Z,100156.50
2023-04-16T15:56:47.827Z,100148.91
2023-04-16T16:00:05.308Z,100157.88
2023-04-16T16:03:09.628Z,100155.50
2023-04-16T16:06:11.706Z,100154.53
2023-04-16T16:09:13.679Z,100156.22
2023-04-16T16:12:15.624Z,100155.19
2023-04-16T16:15:17.677Z,100160.75
2023-04-16T16:18:19.528Z,100162.28
2023-04-16T16:21:21.872Z,100158.41
2023-04-16T16:24:23.995Z,100160.13
2023-04-16T16:27:26.027Z,100161.12
2023-04-16T16:30:27.919Z,100167.75
2023-04-16T16:33:30.600Z,100162.34
2023-04-16T16:36:36.775Z,100155.37
2023-04-16T16:39:39.114Z,100164.81
2023-04-16T16:42:41.176Z,100161.12
2023-04-16T16:45:43.115Z,100159.97
2023-04-16T16:48:45.078Z,100160.44
2023-04-16T16:51:47.520Z,100157.44
2023-04-16T16:54:49.386Z,100164.16
2023-04-16T16:57:51.313Z,100167.94
2023-04-16T17:00:53.336Z,100162.97
2023-04-16T17:03:56.231Z,100171.22
2023-04-16T17:06:58.195Z,100163.34
2023-04-16T17:10:03.064Z,100169.63
2023-04-16T17:13:06.656Z,100177.22
2023-04-16T17:16:08.616Z,100165.03
2023-04-16T17:19:12.369Z,100155.16
2023-04-16T17:22:14.451Z,100183.63
2023-04-16T17:25:16.401Z,100183.50
2023-04-16T17:28:18.407Z,100189.87
2023-04-16T17:31:20.304Z,100185.59
2023-04-16T17:34:22.479Z,100188.88
2023-04-16T17:37:24.348Z,100189.59
2023-04-16T17:40:26.229Z,100191.06
2023-04-16T17:43:28.597Z,100198.00
2023-04-16T17:46:30.738Z,100205.28
2023-04-16T17:49:32.842Z,100201.00
2023-04-16T17:52:34.760Z,100194.16
2023-04-16T17:55:36.715Z,100202.56
2023-04-16T17:58:38.641Z,100205.31
2023-04-16T18:01:41.037Z,100207.44
2023-04-16T18:04:43.161Z,100209.47
2023-04-16T18:07:47.015Z,100215.72
2023-04-16T18:10:48.962Z,100219.75
2023-04-16T18:13:53.111Z,100230.78
2023-04-16T18:16:55.045Z,100210.81
2023-04-16T18:19:56.956Z,100232.81
2023-04-16T18:22:58.872Z,100231.00
2023-04-16T18:26:00.726Z,100240.53
2023-04-16T18:29:03.074Z,100245.25
2023-04-16T18:32:05.463Z,100226.66
2023-04-16T18:35:07.674Z,100228.81
2023-04-16T18:38:09.656Z,100222.59
2023-04-16T18:41:20.874Z,100214.78
2023-04-16T18:44:23.671Z,100217.63
2023-04-16T18:47:25.794Z,100215.88
2023-04-16T18:50:27.657Z,100214.25
2023-04-16T18:53:29.664Z,100220.56
2023-04-16T18:56:31.560Z,100211.47
2023-04-16T18:59:33.507Z,100217.63
2023-04-16T19:02:35.496Z,100213.41
2023-04-16T19:05:37.407Z,100206.63
2023-04-16T19:08:39.282Z,100209.03
2023-04-16T19:11:41.286Z,100199.97
2023-04-16T19:14:43.248Z,100212.09
2023-04-16T19:17:45.166Z,100209.00
2023-04-16T19:20:47.159Z,100208.84
2023-04-16T19:23:49.243Z,100219.66
2023-04-16T19:26:51.155Z,100225.88
2023-04-16T19:29:53.125Z,100215.47
2023-04-16T19:32:55.661Z,100216.25
2023-04-16T19:35:57.710Z,100221.34
2023-04-16T19:38:59.724Z,100211.38
2023-04-16T19:42:01.769Z,100209.25
2023-04-16T19:45:03.960Z,100212.44
2023-04-16T19:48:05.954Z,100207.06
2023-04-16T19:51:07.964Z,100212.09
2023-04-16T19:54:09.800Z,100203.13
2023-04-16T19:57:11.764Z,100214.00
2023-04-16T20:00:13.934Z,100204.19
2023-04-16T20:03:15.829Z,100202.63
2023-04-16T20:06:17.744Z,100206.63
2023-04-16T20:09:20.288Z,100203.97
2023-04-16T20:12:22.928Z,100200.84
2023-04-16T20:15:24.876Z,100194.41
2023-04-16T20:18:28.872Z,100196.16
2023-04-16T20:21:32.075Z,100198.06
2023-04-16T20:24:34.311Z,100191.31
2023-04-16T20:27:36.289Z,100193.81
2023-04-16T20:30:41.329Z,100196.63
2023-04-16T20:33:43.227Z,100190.84
2023-04-16T20:36:45.241Z,100203.72
2023-04-16T20:39:50.221Z,100203.28
2023-04-16T20:42:52.305Z,100196.78
2023-04-16T20:45:54.216Z,100206.53
2023-04-16T20:48:56.187Z,100205.75
2023-04-16T20:51:58.072Z,100193.22
2023-04-16T20:54:59.937Z,100188.66
2023-04-16T20:58:01.844Z,100191.97
2023-04-16T21:01:05.904Z,100189.44
2023-04-16T21:04:08.183Z,100188.78
2023-04-16T21:07:10.222Z,100186.81
2023-04-16T21:10:12.230Z,100192.44
2023-04-16T21:13:14.373Z,100191.59
2023-04-16T21:16:16.476Z,100185.69
2023-04-16T21:19:18.386Z,100199.53
2023-04-16T21:22:20.491Z,100174.69
2023-04-16T21:25:25.673Z,100180.63
2023-04-16T21:28:27.518Z,100189.28
2023-04-16T21:31:29.443Z,100162.50
2023-04-16T21:34:31.313Z,100173.63
2023-04-16T21:37:33.195Z,100167.75
2023-04-16T21:40:35.013Z,100170.34
2023-04-16T21:43:36.958Z,100182.75
2023-04-16T21:46:38.893Z,100186.25
2023-04-16T21:49:42.360Z,100168.81
2023-04-16T21:52:46.167Z,100176.84
2023-04-16T21:55:48.080Z,100168.91
2023-04-16T21:58:49.983Z,100171.03
2023-04-16T22:01:52.046Z,100164.88
2023-04-16T22:04:54.127Z,100165.59
2023-04-16T22:07:56.285Z,100167.50
2023-04-16T22:10:59.192Z,100162.84
2023-04-16T22:14:01.092Z,100161.03
2023-04-16T22:17:03.461Z,100168.06
2023-04-16T22:20:11.539Z,100155.84
2023-04-16T22:23:13.735Z,100163.63
2023-04-16T22:26:15.669Z,100158.13
2023-04-16T22:29:17.738Z,100154.12
2023-04-16T22:32:19.711Z,100154.34
2023-04-16T22:35:21.682Z,100154.56
2023-04-16T22:38:23.713Z,100157.16
2023-04-16T22:41:25.574Z,100148.66
2023-04-16T22:44:27.434Z,100150.84
2023-04-16T22:47:29.305Z,100144.31
2023-04-16T22:50:31.522Z,100148.19
2023-04-16T22:53:33.503Z,100149.97
2023-04-16T22:56:35.668Z,100144.31
2023-04-16T22:59:37.774Z,100137.78
2023-04-16T23:02:39.749Z,100121.81
2023-04-16T23:05:41.661Z,100129.00
2023-04-16T23:08:43.554Z,100137.59
2023-04-16T23:11:45.760Z,100124.09
2023-04-16T23:14:48.143Z,100118.69
2023-04-16T23:17:50.041Z,100128.78
2023-04-16T23:20:52.746Z,100127.03
2023-04-16T23:23:54.909Z,100124.09
2023-04-16T23:26:57.992Z,100132.19
2023-04-16T23:29:59.827Z,100123.72
2023-04-16T23:33:02.978Z,100117.28
2023-04-16T23:36:05.120Z,100122.59
2023-04-16T23:39:07.078Z,100109.16
2023-04-16T23:42:08.953Z,100116.84
2023-04-16T23:45:10.978Z,100110.97
2023-04-16T23:48:12.870Z,100107.38
2023-04-16T23:51:14.787Z,100102.63
2023-04-16T23:54:17.214Z,100109.22
2023-04-16T23:57:19.175Z,100099.97
